01V weather

CLOSED Aurora Airpark
Aurora, Colorado, United States

Public forecast

Using degrees Fahrenheit for public forecast. Weather courtesy of forecast.io.

METAR (pilot weather report)

Closest report is Buckley Air Force Base, 4.9 nm (9.0 km) WSW. Retrieved 2019/04/19 16:58 UTC (56 minutes ago):

KBKF 191658Z 07008KT 10SM FEW220 18/M01 A3019 RMK AO2A SLP186 T01771015

TAF (pilot weather forecast)

Forecast is more than 6 hours old.

Closest forecast is Buckley Air Force Base, 4.9 nm (9.0 km) WSW. Retrieved 2019/04/19 09:06 UTC (9 hours ago):

TAF KBKF 190905Z 1909/2015 VRB06KT 9999 FEW100 QNH3009INS BECMG 2002/2003 18009KT 9999 FEW150 QNH2998INS TX23/1921Z TN01/1912Z